Time;durP1;ratioP1;P1;durP2;ratioP2;P2;SDS_P1;SDS_P2;PMS_P1;PMS_P2;Temp;Humidity;BMP_temperature;BMP_pressure;BME280_temperature;BME280_humidity;BME280_pressure;Samples;Min_cycle;Max_cycle;Signal;HPM_P1;HPM_P2
2023/12/04 00:02:20;;;;;;;7.97;3.95;;;0.50;66.10;;;;;;2312040;55;21021;-65
2023/12/04 00:04:46;;;;;;;10.98;5.00;;;0.40;65.90;;;;;;2549798;54;20977;-68
2023/12/04 00:07:13;;;;;;;7.35;3.80;;;0.40;65.90;;;;;;2550905;54;21017;-67
2023/12/04 00:09:39;;;;;;;7.82;3.75;;;0.40;65.90;;;;;;2526331;54;20952;-66
2023/12/04 00:12:06;;;;;;;8.93;4.43;;;0.40;66.00;;;;;;2533231;54;21606;-68
2023/12/04 00:14:39;;;;;;;;;;;0.40;66.00;;;;;;2314054;55;21013;-67
2023/12/04 00:17:05;;;;;;;8.75;4.18;;;0.40;65.50;;;;;;2311518;55;20113;-65
2023/12/04 00:19:32;;;;;;;6.78;3.22;;;0.40;66.00;;;;;;2311147;55;21746;-66
2023/12/04 00:21:58;;;;;;;5.57;2.67;;;0.30;66.00;;;;;;2550899;54;20986;-65
2023/12/04 00:24:27;;;;;;;6.00;2.55;;;0.30;66.10;;;;;;2311406;55;21052;-65
2023/12/04 00:26:54;;;;;;;4.22;2.08;;;0.30;66.10;;;;;;2311301;55;20938;-66
2023/12/04 00:29:21;;;;;;;5.40;2.53;;;0.30;66.10;;;;;;2300390;55;20973;-65
2023/12/04 00:31:49;;;;;;;4.68;2.35;;;0.30;66.10;;;;;;2292258;55;21304;-66
2023/12/04 00:34:16;;;;;;;5.93;2.28;;;0.30;66.10;;;;;;2310990;55;20994;-66
2023/12/04 00:36:42;;;;;;;5.72;2.95;;;0.20;65.90;;;;;;2550594;54;20945;-66
2023/12/04 00:39:09;;;;;;;6.78;2.97;;;0.20;66.00;;;;;;2311541;55;21759;-66
2023/12/04 00:41:35;;;;;;;7.43;2.92;;;0.20;66.10;;;;;;2311245;55;21475;-65
2023/12/04 00:44:02;;;;;;;5.93;2.60;;;0.20;66.20;;;;;;2311686;55;21664;-67
2023/12/04 00:46:28;;;;;;;4.95;2.37;;;0.20;66.30;;;;;;2550867;54;21046;-66
2023/12/04 00:48:55;;;;;;;6.25;2.97;;;0.20;66.30;;;;;;2311485;55;21404;-67
2023/12/04 00:51:21;;;;;;;4.45;2.17;;;0.20;66.30;;;;;;2310864;55;21701;-67
2023/12/04 00:53:47;;;;;;;5.87;2.30;;;0.20;66.40;;;;;;2550695;54;21190;-66
2023/12/04 00:56:16;;;;;;;5.25;2.12;;;0.20;66.40;;;;;;2311138;55;21447;-66
2023/12/04 00:58:45;;;;;;;4.03;1.55;;;0.20;66.30;;;;;;2310988;55;21431;-65
2023/12/04 01:01:11;;;;;;;5.53;2.05;;;0.20;66.40;;;;;;2311470;55;21041;-64
2023/12/04 01:03:38;;;;;;;4.05;1.90;;;0.20;66.40;;;;;;2550743;54;21789;-65
2023/12/04 01:06:04;;;;;;;4.07;1.62;;;0.20;66.40;;;;;;2549706;54;21037;-67
2023/12/04 01:08:33;;;;;;;5.62;1.98;;;0.20;66.40;;;;;;2311091;55;21005;-67
2023/12/04 01:10:59;;;;;;;4.43;1.95;;;0.20;66.30;;;;;;2311255;55;20950;-65
2023/12/04 01:13:26;;;;;;;3.95;1.70;;;0.20;66.20;;;;;;2281046;56;21312;-65
2023/12/04 01:15:52;;;;;;;5.32;2.00;;;0.20;66.20;;;;;;2547880;54;21170;-66
2023/12/04 01:18:18;;;;;;;5.18;2.40;;;0.20;66.20;;;;;;2550103;54;22144;-66
2023/12/04 01:20:45;;;;;;;4.40;2.00;;;0.20;66.20;;;;;;2550647;54;20950;-65
2023/12/04 01:23:13;;;;;;;4.18;1.70;;;0.10;66.20;;;;;;2310874;55;20961;-66
2023/12/04 01:25:44;;;;;;;4.80;1.75;;;0.10;66.30;;;;;;2312231;55;20984;-65
2023/12/04 01:28:35;;;;;;;4.90;1.80;;;0.20;66.40;;;;;;2550207;54;20973;-66
2023/12/04 01:31:04;;;;;;;4.20;1.55;;;0.20;66.40;;;;;;2508745;54;20957;-67
2023/12/04 01:33:38;;;;;;;4.50;1.92;;;0.20;66.50;;;;;;2512487;54;20937;-65
2023/12/04 01:36:05;;;;;;;4.18;2.00;;;0.20;66.50;;;;;;2505334;54;21097;-65
2023/12/04 01:42:21;;;;;;;5.25;1.95;;;0.20;66.60;;;;;;2550524;54;20949;-67
2023/12/04 01:44:48;;;;;;;3.05;1.50;;;0.20;66.70;;;;;;2550493;54;20969;-65
2023/12/04 01:47:14;;;;;;;4.50;1.85;;;0.20;66.80;;;;;;2310725;55;20961;-65
2023/12/04 01:49:41;;;;;;;4.22;1.98;;;0.20;66.90;;;;;;2310993;55;21777;-66
2023/12/04 01:52:13;;;;;;;5.12;1.85;;;0.20;66.90;;;;;;2311105;55;20942;-67
2023/12/04 01:54:39;;;;;;;4.30;1.75;;;0.20;67.00;;;;;;2296908;55;21527;-66
2023/12/04 01:57:08;;;;;;;2.72;1.27;;;0.20;67.00;;;;;;2273649;56;20964;-66
2023/12/04 01:59:36;;;;;;;4.15;1.60;;;0.20;67.00;;;;;;2302971;55;20993;-66
2023/12/04 02:02:02;;;;;;;4.53;1.90;;;0.20;67.10;;;;;;2311508;55;20941;-65
2023/12/04 02:04:29;;;;;;;4.12;1.67;;;0.30;67.20;;;;;;2311183;55;20973;-67
2023/12/04 02:06:55;;;;;;;5.22;1.77;;;0.30;67.30;;;;;;2285251;55;21232;-67
2023/12/04 02:09:23;;;;;;;5.03;1.80;;;0.30;67.30;;;;;;2545617;53;21410;-67
2023/12/04 02:11:49;;;;;;;7.25;2.25;;;0.40;67.50;;;;;;2509920;54;21439;-65
2023/12/04 02:14:15;;;;;;;3.70;1.62;;;0.40;67.50;;;;;;2550251;54;20957;-66
2023/12/04 02:16:43;;;;;;;4.35;1.75;;;0.40;67.50;;;;;;2311133;55;20934;-67
2023/12/04 02:19:11;;;;;;;5.70;1.70;;;0.40;67.50;;;;;;2551482;54;20973;-65
2023/12/04 02:21:38;;;;;;;5.15;2.03;;;0.40;67.40;;;;;;2502054;55;21022;-66
2023/12/04 02:24:04;;;;;;;3.65;1.67;;;0.50;67.40;;;;;;2281747;56;20947;-65
2023/12/04 02:26:34;;;;;;;4.78;2.12;;;0.50;67.40;;;;;;2284350;55;20981;-66
2023/12/04 02:29:08;;;;;;;5.97;2.20;;;0.50;67.20;;;;;;2310659;55;22983;-66
2023/12/04 02:31:45;;;;;;;5.72;2.12;;;0.50;67.10;;;;;;2311502;55;20961;-67
2023/12/04 02:34:12;;;;;;;5.62;2.50;;;0.50;67.00;;;;;;2290029;55;21854;-65
2023/12/04 02:36:43;;;;;;;5.30;2.40;;;0.50;67.00;;;;;;2303959;55;21001;-66
2023/12/04 02:39:09;;;;;;;7.10;2.50;;;0.50;67.00;;;;;;2290597;55;21099;-66
2023/12/04 02:41:35;;;;;;;6.37;2.22;;;0.50;67.00;;;;;;2290280;55;21011;-67
2023/12/04 02:44:02;;;;;;;4.78;2.42;;;0.50;67.00;;;;;;2524954;54;20968;-66
2023/12/04 02:46:28;;;;;;;5.53;2.20;;;0.50;67.00;;;;;;2290910;55;21580;-66
2023/12/04 02:48:54;;;;;;;4.87;2.28;;;0.50;67.10;;;;;;2290594;55;20956;-65
2023/12/04 02:51:21;;;;;;;4.15;1.95;;;0.60;67.20;;;;;;2290367;55;21212;-65
2023/12/04 02:53:47;;;;;;;4.68;2.03;;;0.50;67.20;;;;;;2290521;55;21055;-65
2023/12/04 02:56:13;;;;;;;5.05;2.22;;;0.40;67.20;;;;;;2290976;55;20983;-66
2023/12/04 02:58:41;;;;;;;4.32;2.05;;;0.60;67.40;;;;;;2281122;55;21027;-67
2023/12/04 03:01:07;;;;;;;5.28;2.22;;;0.60;67.40;;;;;;2289757;55;20981;-64
2023/12/04 03:03:34;;;;;;;4.82;2.30;;;0.60;67.40;;;;;;2524821;54;21008;-67
2023/12/04 03:06:00;;;;;;;6.05;2.15;;;0.70;67.50;;;;;;2290180;54;21512;-66
2023/12/04 03:08:26;;;;;;;4.72;2.08;;;0.70;67.60;;;;;;2289911;55;20940;-66
2023/12/04 03:10:53;;;;;;;4.62;2.22;;;0.70;67.60;;;;;;2290529;55;21446;-66
2023/12/04 03:13:19;;;;;;;4.90;2.08;;;0.70;67.70;;;;;;2289987;54;20951;-67
2023/12/04 03:15:46;;;;;;;3.95;1.65;;;0.70;67.70;;;;;;2289924;55;21044;-68
2023/12/04 03:18:12;;;;;;;4.43;1.90;;;0.80;67.80;;;;;;2290462;54;21127;-65
2023/12/04 03:20:38;;;;;;;4.05;1.95;;;0.80;67.90;;;;;;2291473;55;20984;-68
2023/12/04 03:23:05;;;;;;;4.55;2.10;;;0.80;67.90;;;;;;2524663;54;20987;-68
2023/12/04 03:25:31;;;;;;;4.60;1.73;;;0.80;67.90;;;;;;2290198;54;21023;-67
2023/12/04 03:27:57;;;;;;;4.72;1.92;;;0.90;68.00;;;;;;2525031;54;21728;-66
2023/12/04 03:30:24;;;;;;;5.05;2.00;;;0.90;68.00;;;;;;2523439;54;20932;-66
2023/12/04 03:32:50;;;;;;;4.82;2.12;;;0.90;68.00;;;;;;2293000;54;20974;-67
2023/12/04 03:35:16;;;;;;;4.53;1.98;;;1.00;68.10;;;;;;2523431;54;20975;-67
2023/12/04 03:37:43;;;;;;;7.00;2.30;;;1.00;68.10;;;;;;2289619;54;21438;-67
2023/12/04 03:40:10;;;;;;;4.93;2.22;;;1.00;68.10;;;;;;2290117;54;20976;-66
2023/12/04 03:42:37;;;;;;;5.00;2.28;;;1.00;68.10;;;;;;2282957;56;20991;-65
2023/12/04 03:45:04;;;;;;;4.47;2.15;;;1.00;68.00;;;;;;2512089;54;20988;-67
2023/12/04 03:47:31;;;;;;;5.47;2.30;;;1.10;68.00;;;;;;2289841;54;20963;-65
2023/12/04 03:49:58;;;;;;;5.70;2.60;;;1.10;67.90;;;;;;2289412;55;20972;-67
2023/12/04 03:52:24;;;;;;;4.85;2.35;;;1.10;67.80;;;;;;2524250;54;21778;-65
2023/12/04 03:54:50;;;;;;;5.85;2.50;;;1.10;67.80;;;;;;2524872;54;20971;-68
2023/12/04 03:57:17;;;;;;;5.18;2.45;;;1.10;67.70;;;;;;2289622;54;20951;-66
2023/12/04 03:59:44;;;;;;;5.43;2.12;;;1.10;67.70;;;;;;2515733;54;20962;-68
2023/12/04 04:02:10;;;;;;;7.65;2.15;;;1.20;67.80;;;;;;2286119;54;21318;-66
2023/12/04 04:04:37;;;;;;;3.53;1.50;;;1.20;67.80;;;;;;2290367;55;20947;-67
2023/12/04 04:07:03;;;;;;;4.57;1.95;;;1.20;67.80;;;;;;2293289;55;20959;-68
2023/12/04 04:09:30;;;;;;;6.10;1.75;;;1.20;67.80;;;;;;2521936;54;21360;-69
2023/12/04 04:11:56;;;;;;;4.22;1.80;;;1.20;67.80;;;;;;2288036;55;20940;-68
2023/12/04 04:14:24;;;;;;;3.97;1.45;;;1.30;68.00;;;;;;2290381;55;21425;-67
2023/12/04 04:16:50;;;;;;;4.57;1.73;;;1.30;68.00;;;;;;2525728;54;21276;-66
2023/12/04 04:19:19;;;;;;;4.03;1.70;;;1.30;68.00;;;;;;2290544;55;20999;-67
2023/12/04 04:21:48;;;;;;;3.58;1.67;;;1.30;68.00;;;;;;2291802;55;21270;-65
2023/12/04 04:24:14;;;;;;;5.57;2.22;;;1.30;68.00;;;;;;2289798;55;21324;-67
2023/12/04 04:26:40;;;;;;;4.87;2.45;;;1.30;67.90;;;;;;2525185;54;20988;-65
2023/12/04 04:29:07;;;;;;;5.30;2.40;;;1.30;67.90;;;;;;2520680;54;21216;-67
2023/12/04 04:31:36;;;;;;;4.32;2.05;;;1.40;68.00;;;;;;2285873;56;21802;-66
2023/12/04 04:34:03;;;;;;;5.03;2.05;;;1.40;68.10;;;;;;2266864;56;20963;-65
2023/12/04 04:36:29;;;;;;;6.40;2.20;;;1.40;68.00;;;;;;2517329;53;20983;-68
2023/12/04 04:38:55;;;;;;;5.47;2.65;;;1.40;68.10;;;;;;2536475;53;20945;-65
2023/12/04 04:41:21;;;;;;;5.20;2.47;;;1.40;68.00;;;;;;2296125;54;20964;-68
2023/12/04 04:43:48;;;;;;;10.75;4.25;;;1.50;68.10;;;;;;2331497;55;21294;-67
2023/12/04 04:46:15;;;;;;;8.07;3.70;;;1.50;68.10;;;;;;2575159;53;21693;-67
2023/12/04 04:48:42;;;;;;;8.85;4.00;;;1.50;68.10;;;;;;2331678;55;20990;-66
2023/12/04 04:51:08;;;;;;;9.50;4.65;;;1.50;68.10;;;;;;2331401;54;20964;-65
2023/12/04 04:53:34;;;;;;;6.97;3.55;;;1.50;68.10;;;;;;2331824;54;21006;-67
2023/12/04 04:56:02;;;;;;;8.82;3.85;;;1.60;68.20;;;;;;2333887;55;20952;-66
2023/12/04 04:58:28;;;;;;;6.53;3.15;;;1.60;68.10;;;;;;2328325;55;21481;-66
2023/12/04 05:00:54;;;;;;;6.85;2.90;;;1.60;68.10;;;;;;2575902;53;20970;-68
2023/12/04 05:03:21;;;;;;;6.00;2.53;;;1.60;68.10;;;;;;2307152;54;20918;-67
2023/12/04 05:05:48;;;;;;;6.53;2.87;;;1.60;68.00;;;;;;2575361;53;20998;-67
2023/12/04 05:08:14;;;;;;;5.95;3.17;;;1.70;68.10;;;;;;2331689;55;20939;-65
2023/12/04 05:10:42;;;;;;;6.05;2.95;;;1.70;68.00;;;;;;2332485;55;21402;-69
2023/12/04 05:13:10;;;;;;;7.25;2.83;;;1.70;67.90;;;;;;2331983;55;21511;-67
2023/12/04 05:15:36;;;;;;;6.25;2.92;;;1.70;67.90;;;;;;2331833;55;21018;-65
2023/12/04 05:18:03;;;;;;;7.05;3.50;;;1.70;67.90;;;;;;2330513;55;21871;-66
2023/12/04 05:20:32;;;;;;;16.17;7.15;;;1.70;67.90;;;;;;2575245;53;20930;-66
2023/12/04 05:22:59;;;;;;;28.35;11.12;;;1.70;67.90;;;;;;2332459;55;20974;-66
2023/12/04 05:25:25;;;;;;;26.90;10.60;;;1.70;67.90;;;;;;2576116;53;20943;-66
2023/12/04 05:27:53;;;;;;;19.98;9.15;;;1.70;67.90;;;;;;2576425;53;21368;-67
2023/12/04 05:30:20;;;;;;;15.68;7.93;;;1.80;68.00;;;;;;2310414;54;21052;-66
2023/12/04 05:32:48;;;;;;;23.10;11.05;;;1.80;68.00;;;;;;2313196;54;20954;-65
2023/12/04 05:35:15;;;;;;;21.45;11.02;;;1.80;68.00;;;;;;2553809;53;21555;-66
2023/12/04 05:37:42;;;;;;;18.77;9.10;;;1.80;68.00;;;;;;2331781;55;20969;-67
2023/12/04 05:40:11;;;;;;;16.02;7.93;;;1.80;68.00;;;;;;2575911;53;20947;-66
2023/12/04 05:42:37;;;;;;;12.00;6.03;;;1.80;68.00;;;;;;2574927;53;21038;-68
2023/12/04 05:45:04;;;;;;;8.52;4.82;;;1.80;68.00;;;;;;2559591;53;21378;-67
2023/12/04 05:47:31;;;;;;;8.63;4.43;;;1.90;68.20;;;;;;2317717;54;21010;-67
2023/12/04 05:49:57;;;;;;;9.07;4.55;;;1.90;68.20;;;;;;2573780;53;20938;-66
2023/12/04 05:52:23;;;;;;;8.23;3.33;;;1.90;68.10;;;;;;2574912;53;21006;-67
2023/12/04 05:54:50;;;;;;;6.00;2.90;;;1.90;68.10;;;;;;2575262;53;20961;-65
2023/12/04 05:57:16;;;;;;;7.78;3.70;;;1.90;68.00;;;;;;2331383;54;21724;-68
2023/12/04 05:59:44;;;;;;;7.55;3.50;;;1.90;67.90;;;;;;2331962;55;20942;-65
2023/12/04 06:02:10;;;;;;;9.85;4.55;;;1.90;67.90;;;;;;2331467;54;21368;-65
2023/12/04 06:04:38;;;;;;;8.32;3.87;;;1.90;67.80;;;;;;2575551;53;20979;-67
2023/12/04 06:07:06;;;;;;;8.57;3.78;;;1.90;67.80;;;;;;2576744;53;21326;-69
2023/12/04 06:09:33;;;;;;;8.98;4.37;;;1.90;67.70;;;;;;2331549;55;20967;-66
2023/12/04 06:12:08;;;;;;;9.23;4.85;;;1.90;67.60;;;;;;2324077;54;21504;-65
2023/12/04 06:14:35;;;;;;;8.45;4.25;;;1.90;67.60;;;;;;2297619;55;21865;-66
2023/12/04 06:17:01;;;;;;;11.35;5.12;;;1.90;67.60;;;;;;2310520;54;21453;-66
2023/12/04 06:19:29;;;;;;;10.90;5.40;;;1.90;67.60;;;;;;2330295;54;21054;-68
2023/12/04 06:21:55;;;;;;;10.80;5.45;;;1.90;67.60;;;;;;2310219;54;21015;-68
2023/12/04 06:24:23;;;;;;;10.15;5.43;;;1.90;67.70;;;;;;2328833;54;21014;-68
2023/12/04 06:26:53;;;;;;;17.42;8.40;;;2.00;67.80;;;;;;2576263;53;20923;-65
2023/12/04 06:29:19;;;;;;;17.12;8.90;;;2.00;67.80;;;;;;2574390;53;21046;-67
2023/12/04 06:31:46;;;;;;;16.08;8.10;;;2.00;67.90;;;;;;2323126;54;20987;-66
2023/12/04 06:34:13;;;;;;;12.05;6.70;;;2.00;67.90;;;;;;2312622;54;20974;-67
2023/12/04 06:36:40;;;;;;;13.45;6.97;;;2.00;67.90;;;;;;2566320;53;20987;-68
2023/12/04 06:39:13;;;;;;;12.15;6.55;;;2.00;67.90;;;;;;2312485;54;20966;-67
2023/12/04 06:41:40;;;;;;;13.18;6.50;;;2.00;67.90;;;;;;2550622;53;20991;-68
2023/12/04 06:44:07;;;;;;;9.52;5.25;;;2.00;68.00;;;;;;2325461;55;20959;-68
2023/12/04 06:46:36;;;;;;;11.88;5.32;;;2.00;68.00;;;;;;2575851;53;21018;-67
2023/12/04 06:49:21;;;;;;;9.95;5.60;;;2.00;67.90;;;;;;2332377;55;21014;-65
2023/12/04 06:51:47;;;;;;;12.07;6.25;;;2.10;67.90;;;;;;2575815;53;21306;-68
2023/12/04 06:54:17;;;;;;;11.80;5.78;;;2.10;68.00;;;;;;2574583;53;20947;-67
2023/12/04 06:56:45;;;;;;;14.02;6.55;;;2.00;67.80;;;;;;2327063;54;20955;-69
2023/12/04 06:59:12;;;;;;;16.33;6.82;;;2.10;68.00;;;;;;2552466;53;21274;-68
2023/12/04 07:01:39;;;;;;;13.88;6.87;;;2.10;68.00;;;;;;2331509;55;20943;-68
2023/12/04 07:04:09;;;;;;;25.42;9.32;;;2.10;68.10;;;;;;2332121;55;20995;-67
2023/12/04 07:06:36;;;;;;;17.37;7.78;;;2.10;68.10;;;;;;2575072;53;21480;-67
2023/12/04 07:09:03;;;;;;;17.42;8.30;;;2.10;68.20;;;;;;2332446;54;21726;-69
2023/12/04 07:11:29;;;;;;;15.93;8.40;;;2.10;68.20;;;;;;2575233;53;21428;-67
2023/12/04 07:13:55;;;;;;;15.05;7.60;;;2.10;68.20;;;;;;2332102;55;21463;-68
2023/12/04 07:16:24;;;;;;;14.95;8.18;;;2.10;68.10;;;;;;2331240;54;21326;-68
2023/12/04 07:18:51;;;;;;;14.10;6.72;;;2.20;68.20;;;;;;2308078;54;20943;-66
2023/12/04 07:21:18;;;;;;;17.12;7.82;;;2.20;68.20;;;;;;2331552;54;20954;-67
2023/12/04 07:23:45;;;;;;;18.08;7.85;;;2.20;68.30;;;;;;2328110;54;21062;-68
2023/12/04 07:26:11;;;;;;;13.52;6.35;;;2.20;68.30;;;;;;2552542;53;21171;-68
2023/12/04 07:28:37;;;;;;;16.08;6.82;;;2.20;68.30;;;;;;2575382;53;21930;-67
2023/12/04 07:31:04;;;;;;;14.75;6.90;;;2.20;68.20;;;;;;2331887;54;20994;-67
2023/12/04 07:33:30;;;;;;;17.23;7.72;;;2.20;68.10;;;;;;2330524;55;20974;-66
2023/12/04 07:35:57;;;;;;;15.63;7.35;;;2.30;68.20;;;;;;2331918;55;21045;-68
2023/12/04 07:38:23;;;;;;;16.15;7.60;;;2.30;68.10;;;;;;2331089;55;20939;-65
2023/12/04 07:40:51;;;;;;;14.82;7.15;;;2.30;68.10;;;;;;2331328;55;20966;-69
2023/12/04 07:43:19;;;;;;;14.23;7.28;;;2.30;68.00;;;;;;2320536;54;21003;-65
2023/12/04 07:45:45;;;;;;;15.80;7.32;;;2.30;68.00;;;;;;2318590;54;20973;-67
2023/12/04 07:48:14;;;;;;;16.40;8.25;;;2.30;67.90;;;;;;2331803;55;21317;-66
2023/12/04 07:50:41;;;;;;;14.32;6.82;;;2.30;68.60;;;;;;2575494;53;21302;-66
2023/12/04 07:53:26;;;;;;;14.45;7.00;;;2.30;68.00;;;;;;2331978;54;21034;-66
2023/12/04 07:59:20;;;;;;;15.48;7.35;;;2.30;67.80;;;;;;2575322;53;20955;-68
2023/12/04 08:01:47;;;;;;;16.62;9.10;;;2.30;68.00;;;;;;2332223;54;20990;-66
2023/12/04 08:04:13;;;;;;;14.45;7.18;;;2.40;68.20;;;;;;2330887;54;21006;-68
2023/12/04 08:06:39;;;;;;;15.38;7.18;;;2.40;68.30;;;;;;2575290;53;20950;-66
2023/12/04 08:09:09;;;;;;;18.70;9.13;;;2.40;68.30;;;;;;2576157;53;20959;-66
2023/12/04 08:11:37;;;;;;;17.40;8.85;;;2.40;68.40;;;;;;2330725;54;21423;-67
2023/12/04 08:14:03;;;;;;;16.17;8.60;;;2.40;68.30;;;;;;2331454;55;21526;-69
2023/12/04 08:16:31;;;;;;;18.27;8.65;;;2.40;68.20;;;;;;2330846;55;20946;-66
2023/12/04 08:18:57;;;;;;;18.27;9.38;;;2.50;68.20;;;;;;2332076;55;20951;-68
2023/12/04 08:21:27;;;;;;;19.02;8.65;;;2.50;68.20;;;;;;2544834;53;20962;-66
2023/12/04 08:23:53;;;;;;;14.87;8.63;;;2.50;68.20;;;;;;2575092;53;21018;-66
2023/12/04 08:26:24;;;;;;;17.40;8.63;;;2.50;68.30;;;;;;2575061;53;21396;-66
2023/12/04 08:28:52;;;;;;;16.98;9.05;;;2.50;68.30;;;;;;2576236;53;21440;-67
2023/12/04 08:31:19;;;;;;;21.17;10.02;;;2.60;68.50;;;;;;2331736;55;20935;-69
2023/12/04 08:33:46;;;;;;;23.20;11.35;;;2.60;68.50;;;;;;2315457;54;21560;-65
2023/12/04 08:36:13;;;;;;;20.48;10.23;;;2.60;68.50;;;;;;2566405;53;21195;-65
2023/12/04 08:38:39;;;;;;;29.08;13.00;;;2.60;68.50;;;;;;2330611;55;20990;-66
2023/12/04 08:41:06;;;;;;;20.67;11.18;;;2.70;68.60;;;;;;2575828;53;20954;-66
2023/12/04 08:43:32;;;;;;;18.37;10.18;;;2.70;68.60;;;;;;2330719;54;20970;-67
2023/12/04 08:46:01;;;;;;;21.83;10.55;;;2.70;68.50;;;;;;2575761;53;20966;-67
2023/12/04 08:48:28;;;;;;;22.60;11.88;;;2.70;68.50;;;;;;2330355;55;20954;-66
2023/12/04 08:50:54;;;;;;;30.10;14.05;;;2.80;68.50;;;;;;2307335;54;20940;-67
2023/12/04 08:53:21;;;;;;;24.63;12.18;;;2.80;68.50;;;;;;2331409;55;20953;-69
2023/12/04 08:55:48;;;;;;;26.27;12.95;;;2.80;68.50;;;;;;2315244;55;20993;-66
2023/12/04 08:58:15;;;;;;;23.85;12.23;;;2.80;68.50;;;;;;2295957;54;20998;-67
2023/12/04 09:00:42;;;;;;;20.67;10.55;;;2.90;68.60;;;;;;2330989;55;20950;-67
2023/12/04 09:03:10;;;;;;;19.60;9.93;;;2.90;68.50;;;;;;2332325;55;21089;-67
2023/12/04 09:05:38;;;;;;;18.70;10.23;;;2.90;68.50;;;;;;2331343;54;20990;-65
2023/12/04 09:08:05;;;;;;;16.98;9.02;;;2.90;68.40;;;;;;2332775;55;20990;-67
2023/12/04 09:10:34;;;;;;;18.92;9.75;;;2.90;68.30;;;;;;2574544;53;20967;-67
2023/12/04 09:13:02;;;;;;;18.95;9.73;;;2.90;68.30;;;;;;2331946;55;20966;-68
2023/12/04 09:15:28;;;;;;;19.23;9.95;;;2.90;68.40;;;;;;2330619;54;21291;-66
2023/12/04 09:17:55;;;;;;;16.05;8.73;;;3.00;68.50;;;;;;2331628;55;20974;-69
2023/12/04 09:20:21;;;;;;;15.13;8.40;;;3.00;68.50;;;;;;2575762;53;21054;-68
2023/12/04 09:22:48;;;;;;;19.23;8.88;;;3.00;68.40;;;;;;2331637;55;22078;-67
2023/12/04 09:25:19;;;;;;;18.77;9.10;;;3.00;68.40;;;;;;2309192;54;21003;-67
2023/12/04 09:27:46;;;;;;;17.33;8.45;;;3.00;68.20;;;;;;2330776;55;22099;-66
2023/12/04 09:30:13;;;;;;;16.90;8.82;;;3.00;68.20;;;;;;2574456;53;21030;-67
2023/12/04 09:32:40;;;;;;;16.00;9.52;;;3.00;69.00;;;;;;2574851;53;20958;-66
2023/12/04 09:35:26;;;;;;;17.70;8.38;;;3.10;68.40;;;;;;2576584;53;21496;-66
2023/12/04 09:37:52;;;;;;;14.48;7.87;;;3.10;68.30;;;;;;2574765;53;20994;-66
2023/12/04 09:40:18;;;;;;;17.92;8.77;;;3.10;68.40;;;;;;2330862;55;20933;-66
2023/12/04 09:42:48;;;;;;;17.08;8.93;;;3.10;68.40;;;;;;2330853;54;21491;-67
2023/12/04 09:45:16;;;;;;;14.85;7.53;;;3.10;68.40;;;;;;2541757;53;21004;-66
2023/12/04 09:47:42;;;;;;;19.85;10.02;;;3.20;68.60;;;;;;2574890;53;20998;-68
2023/12/04 09:50:12;;;;;;;21.42;10.68;;;3.20;68.70;;;;;;2575680;53;21405;-66
2023/12/04 09:52:40;;;;;;;19.95;10.52;;;3.20;68.70;;;;;;2574872;53;20969;-65
2023/12/04 09:55:06;;;;;;;19.45;10.73;;;3.20;68.70;;;;;;2576237;53;20991;-68
2023/12/04 09:57:34;;;;;;;22.40;10.98;;;3.30;68.90;;;;;;2330463;55;21425;-66
2023/12/04 10:00:00;;;;;;;17.98;9.82;;;3.30;68.80;;;;;;2331522;55;21022;-69
2023/12/04 10:02:28;;;;;;;16.45;9.73;;;3.30;68.80;;;;;;2331700;55;21069;-68
2023/12/04 10:04:54;;;;;;;18.15;9.50;;;3.40;68.90;;;;;;2546924;54;20995;-68
2023/12/04 10:07:24;;;;;;;17.50;10.75;;;3.40;68.90;;;;;;2308650;54;21291;-69
2023/12/04 10:09:50;;;;;;;17.15;8.93;;;3.50;69.00;;;;;;2308147;55;20895;-68
2023/12/04 10:12:21;;;;;;;16.00;9.20;;;3.50;68.90;;;;;;2547879;53;21746;-68
2023/12/04 10:15:03;;;;;;;20.62;10.70;;;3.50;68.90;;;;;;2308569;54;21005;-66
2023/12/04 10:17:34;;;;;;;18.53;10.23;;;3.60;68.90;;;;;;2309006;55;21042;-69
2023/12/04 10:20:17;;;;;;;20.27;9.57;;;3.60;69.00;;;;;;2530972;53;20976;-66
2023/12/04 10:22:56;;;;;;;18.90;9.70;;;3.60;68.90;;;;;;2334593;54;20991;-65
2023/12/04 10:25:27;;;;;;;15.02;8.18;;;3.70;69.00;;;;;;2334959;54;20936;-66
2023/12/04 10:27:54;;;;;;;15.23;7.80;;;3.70;69.10;;;;;;2332070;54;21312;-67
2023/12/04 10:30:28;;;;;;;15.20;8.35;;;3.70;69.10;;;;;;2308241;54;21470;-66
2023/12/04 10:33:01;;;;;;;16.62;9.20;;;3.80;69.10;;;;;;2307337;55;21416;-68
2023/12/04 10:35:31;;;;;;;16.42;8.80;;;3.80;69.00;;;;;;2546769;53;20980;-67
2023/12/04 10:37:59;;;;;;;16.17;8.80;;;3.80;69.10;;;;;;2547414;53;21932;-67
2023/12/04 10:40:28;;;;;;;16.00;7.72;;;3.90;69.20;;;;;;2547778;53;21421;-66
2023/12/04 10:43:11;;;;;;;16.23;8.60;;;3.90;69.20;;;;;;2547700;53;20987;-67
2023/12/04 10:45:40;;;;;;;14.07;7.32;;;3.90;69.00;;;;;;2308960;54;20999;-68
2023/12/04 10:48:07;;;;;;;13.93;7.87;;;4.00;69.20;;;;;;2309684;54;21749;-66
2023/12/04 10:50:40;;;;;;;14.68;8.38;;;4.00;69.30;;;;;;2315712;54;21074;-67
2023/12/04 10:53:07;;;;;;;13.70;7.50;;;4.00;69.30;;;;;;2314154;54;21513;-66
2023/12/04 10:55:35;;;;;;;17.05;9.00;;;4.10;69.30;;;;;;2309392;54;22118;-68
2023/12/04 10:58:03;;;;;;;14.45;7.43;;;4.10;69.10;;;;;;2547568;53;21537;-67
2023/12/04 11:00:33;;;;;;;15.43;8.30;;;4.10;69.00;;;;;;2308552;54;20933;-67
2023/12/04 11:03:25;;;;;;;13.27;8.00;;;4.20;69.10;;;;;;2547515;53;20981;-68
2023/12/04 11:05:59;;;;;;;14.32;7.32;;;4.20;69.10;;;;;;2309340;55;20921;-66
2023/12/04 11:08:25;;;;;;;13.48;8.07;;;4.20;69.00;;;;;;2308870;55;20968;-67
2023/12/04 11:11:07;;;;;;;14.52;8.30;;;4.20;69.10;;;;;;2308505;55;21031;-68
2023/12/04 11:13:43;;;;;;;14.77;8.03;;;4.20;68.90;;;;;;2518452;54;20905;-66
2023/12/04 11:16:37;;;;;;;11.95;7.18;;;4.30;69.00;;;;;;2308822;54;20956;-68
2023/12/04 11:20:01;;;;;;;18.23;10.00;;;4.30;69.10;;;;;;2308324;54;20997;-67
2023/12/04 11:22:28;;;;;;;18.25;9.48;;;4.30;69.00;;;;;;2308430;55;22361;-66
2023/12/04 11:24:54;;;;;;;20.88;9.75;;;4.40;69.20;;;;;;2308078;55;22013;-66
2023/12/04 11:27:20;;;;;;;15.13;8.50;;;4.40;69.20;;;;;;2308085;55;20965;-67
2023/12/04 11:29:47;;;;;;;21.45;11.63;;;4.40;69.30;;;;;;2547314;54;21596;-67
2023/12/04 11:32:19;;;;;;;18.27;10.07;;;4.40;69.30;;;;;;2547782;54;20965;-67
2023/12/04 11:34:52;;;;;;;21.27;11.00;;;4.50;69.40;;;;;;2308669;54;21057;-67
2023/12/04 11:37:19;;;;;;;19.15;10.00;;;4.50;69.30;;;;;;2547867;54;20914;-67
2023/12/04 11:39:48;;;;;;;15.95;9.15;;;4.50;69.20;;;;;;2547192;54;20950;-66
2023/12/04 11:42:18;;;;;;;15.02;8.50;;;4.60;69.20;;;;;;2331772;55;20987;-66
2023/12/04 11:44:46;;;;;;;14.10;7.53;;;4.60;69.20;;;;;;2337876;54;20974;-67
2023/12/04 11:47:13;;;;;;;18.75;10.27;;;4.60;69.10;;;;;;2294858;54;20974;-67
2023/12/04 11:49:39;;;;;;;21.67;11.77;;;4.60;69.10;;;;;;2308918;54;20973;-66
2023/12/04 11:52:06;;;;;;;16.60;10.13;;;4.60;69.00;;;;;;2308749;54;21678;-66
2023/12/04 12:04:31;;;;;;;18.80;10.30;;;4.60;69.00;;;;;;2307850;54;20905;-66
2023/12/04 12:06:58;;;;;;;13.38;6.47;;;4.80;68.50;;;;;;2537604;53;20948;-67
2023/12/04 12:09:29;;;;;;;15.70;8.13;;;4.80;69.10;;;;;;2546814;53;20997;-67
2023/12/04 12:11:55;;;;;;;20.67;10.55;;;4.70;69.10;;;;;;2308858;55;20933;-66
2023/12/04 12:14:21;;;;;;;17.15;8.60;;;4.80;69.30;;;;;;2547332;53;20940;-68
2023/12/04 12:16:48;;;;;;;15.27;8.85;;;4.80;69.30;;;;;;2309209;55;20956;-67
2023/12/04 12:19:15;;;;;;;16.08;8.68;;;4.80;69.40;;;;;;2308438;54;20949;-66
2023/12/04 12:21:45;;;;;;;12.30;7.15;;;4.90;69.50;;;;;;2547913;53;20947;-66
2023/12/04 12:24:11;;;;;;;13.55;7.18;;;4.90;69.40;;;;;;2308827;55;20988;-66
2023/12/04 12:26:38;;;;;;;18.48;9.10;;;4.90;69.40;;;;;;2307440;55;21850;-66
2023/12/04 12:29:04;;;;;;;16.48;8.40;;;4.90;69.40;;;;;;2309007;55;21349;-67
2023/12/04 12:31:31;;;;;;;17.33;9.10;;;4.90;69.40;;;;;;2551282;53;20943;-66
2023/12/04 12:33:57;;;;;;;19.60;10.80;;;5.00;69.50;;;;;;2309577;56;20925;-67
2023/12/04 12:36:24;;;;;;;22.10;10.73;;;5.00;69.30;;;;;;2308461;54;21377;-66
2023/12/04 12:38:51;;;;;;;16.05;9.38;;;5.00;69.20;;;;;;2308095;55;20933;-66
2023/12/04 12:41:17;;;;;;;18.55;10.25;;;5.00;69.20;;;;;;2547373;54;20997;-66
2023/12/04 12:43:44;;;;;;;18.67;9.18;;;5.10;69.10;;;;;;2567877;53;21275;-68
2023/12/04 12:46:11;;;;;;;15.85;8.60;;;5.00;69.00;;;;;;2335716;55;20923;-66
2023/12/04 12:48:37;;;;;;;20.80;10.70;;;5.10;69.00;;;;;;2335004;54;21423;-67
2023/12/04 12:51:04;;;;;;;14.57;8.90;;;5.10;69.00;;;;;;2555008;53;20964;-66
2023/12/04 12:53:33;;;;;;;16.12;8.75;;;5.10;69.00;;;;;;2308398;55;20961;-66
2023/12/04 12:56:01;;;;;;;13.62;7.03;;;5.10;69.10;;;;;;2547312;54;21441;-67
2023/12/04 12:58:28;;;;;;;14.13;7.35;;;5.10;69.20;;;;;;2563668;53;20940;-67
2023/12/04 13:00:55;;;;;;;14.93;8.25;;;5.20;69.30;;;;;;2334572;54;20951;-67
2023/12/04 13:03:22;;;;;;;16.52;9.00;;;5.20;69.30;;;;;;2580222;53;21239;-67
2023/12/04 13:05:48;;;;;;;16.70;9.10;;;5.20;69.20;;;;;;2580017;53;21232;-66
2023/12/04 13:08:15;;;;;;;15.20;8.98;;;5.20;69.20;;;;;;2580356;53;21007;-66
2023/12/04 13:10:41;;;;;;;13.75;8.07;;;5.20;69.20;;;;;;2333275;54;21056;-68
2023/12/04 13:13:11;;;;;;;12.07;7.18;;;5.20;69.20;;;;;;2534843;53;21895;-66